createdAt,value
2022-11-29T00:01:39.667Z,100730.13
2022-11-29T00:04:08.213Z,100719.47
2022-11-29T00:06:36.923Z,100728.22
2022-11-29T00:09:07.280Z,100723.00
2022-11-29T00:11:54.660Z,100715.97
2022-11-29T00:14:25.344Z,100719.38
2022-11-29T00:16:56.093Z,100724.75
2022-11-29T00:19:24.111Z,100717.88
2022-11-29T00:21:52.079Z,100702.16
2022-11-29T00:24:20.145Z,100723.91
2022-11-29T00:26:48.971Z,100717.78
2022-11-29T00:29:17.371Z,100723.06
2022-11-29T00:31:46.955Z,100725.84
2022-11-29T00:34:14.862Z,100719.00
2022-11-29T00:36:42.836Z,100723.91
2022-11-29T00:39:12.850Z,100723.75
2022-11-29T00:41:41.284Z,100728.38
2022-11-29T00:44:09.640Z,100723.16
2022-11-29T00:46:37.680Z,100716.22
2022-11-29T00:49:07.108Z,100724.94
2022-11-29T00:51:35.259Z,100707.50
2022-11-29T00:54:03.263Z,100695.44
2022-11-29T00:56:31.405Z,100725.66
2022-11-29T00:58:59.412Z,100724.75
2022-11-29T01:01:27.557Z,100723.19
2022-11-29T01:03:55.576Z,100717.91
2022-11-29T01:06:24.785Z,100730.97
2022-11-29T01:08:52.744Z,100723.16
2022-11-29T01:11:22.240Z,100722.34
2022-11-29T01:13:51.239Z,100730.06
2022-11-29T01:16:19.312Z,100733.63
2022-11-29T01:18:47.392Z,100735.31
2022-11-29T01:21:17.113Z,100726.75
2022-11-29T01:23:48.075Z,100733.63
2022-11-29T01:26:18.772Z,100742.38
2022-11-29T01:28:47.872Z,100741.41
2022-11-29T01:31:18.684Z,100738.25
2022-11-29T01:33:47.372Z,100740.78
2022-11-29T01:36:16.156Z,100735.63
2022-11-29T01:38:44.141Z,100742.66
2022-11-29T01:41:15.643Z,100746.31
2022-11-29T01:43:59.645Z,100744.59
2022-11-29T01:46:29.152Z,100746.34
2022-11-29T01:49:01.575Z,100739.34
2022-11-29T01:51:30.921Z,100747.22
2022-11-29T01:53:59.612Z,100748.25
2022-11-29T01:56:30.972Z,100728.13
2022-11-29T01:58:59.145Z,100743.88
2022-11-29T02:01:27.335Z,100735.13
2022-11-29T02:03:55.688Z,100740.56
2022-11-29T02:06:24.540Z,100740.63
2022-11-29T02:08:52.464Z,100751.16
2022-11-29T02:11:46.655Z,100763.59
2022-11-29T02:14:37.366Z,100750.31
2022-11-29T02:17:16.698Z,100740.72
2022-11-29T02:20:10.160Z,100749.53
2022-11-29T02:22:42.683Z,100753.25
2022-11-29T02:25:25.230Z,100728.81
2022-11-29T02:28:31.800Z,100750.69
2022-11-29T02:31:24.988Z,100753.38
2022-11-29T02:34:09.028Z,100754.13
2022-11-29T02:36:59.124Z,100753.34
2022-11-29T02:39:58.833Z,100752.44
2022-11-29T02:42:56.576Z,100762.88
2022-11-29T02:45:50.001Z,100757.72
2022-11-29T02:48:42.280Z,100751.59
2022-11-29T02:51:18.575Z,100755.97
2022-11-29T02:53:54.711Z,100758.56
2022-11-29T02:56:30.340Z,100757.78
2022-11-29T02:59:04.553Z,100762.22
2022-11-29T03:01:38.283Z,100771.81
2022-11-29T03:04:14.917Z,100756.91
2022-11-29T03:06:51.446Z,100759.50
2022-11-29T03:09:29.903Z,100778.69
2022-11-29T03:12:08.765Z,100772.59
2022-11-29T03:14:48.999Z,100777.81
2022-11-29T03:17:26.036Z,100781.22
2022-11-29T03:20:08.480Z,100777.69
2022-11-29T03:22:44.740Z,100749.03
2022-11-29T03:25:20.111Z,100784.72
2022-11-29T03:27:53.969Z,100775.94
2022-11-29T03:30:22.727Z,100782.06
2022-11-29T03:33:01.918Z,100789.13
2022-11-29T03:35:37.700Z,100797.94
2022-11-29T03:38:17.161Z,100787.38
2022-11-29T03:40:50.972Z,100789.16
2022-11-29T03:43:24.749Z,100794.41
2022-11-29T03:45:58.545Z,100799.63
2022-11-29T03:48:32.264Z,100798.78
2022-11-29T03:51:04.741Z,100789.34
2022-11-29T03:53:40.804Z,100805.00
2022-11-29T03:56:24.903Z,100797.06
2022-11-29T03:59:02.867Z,100803.16
2022-11-29T04:01:56.803Z,100806.69
2022-11-29T04:04:59.389Z,100807.56
2022-11-29T04:08:01.731Z,100811.91
2022-11-29T04:10:58.103Z,100809.22
2022-11-29T04:13:57.729Z,100810.19
2022-11-29T04:17:04.945Z,100813.63
2022-11-29T04:20:14.943Z,100814.50
2022-11-29T04:23:11.706Z,100818.09
2022-11-29T04:25:52.935Z,100821.56
2022-11-29T04:29:00.126Z,100826.06
2022-11-29T04:31:39.015Z,100821.75
2022-11-29T04:34:31.595Z,100829.72
2022-11-29T04:37:19.670Z,100826.00
2022-11-29T04:40:10.731Z,100829.56
2022-11-29T04:43:05.120Z,100839.13
2022-11-29T04:46:15.016Z,100830.56
2022-11-29T04:49:07.563Z,100843.69
2022-11-29T04:51:48.863Z,100829.97
2022-11-29T04:54:25.745Z,100845.53
2022-11-29T04:57:00.106Z,100847.53
2022-11-29T04:59:36.639Z,100854.34
2022-11-29T05:02:14.936Z,100851.84
2022-11-29T05:04:51.696Z,100859.81
2022-11-29T05:07:30.811Z,100861.56
2022-11-29T05:10:07.179Z,100863.28
2022-11-29T05:12:44.109Z,100866.78
2022-11-29T05:15:42.680Z,100861.56
2022-11-29T05:18:19.804Z,100863.50
2022-11-29T05:20:53.826Z,100867.84
2022-11-29T05:23:45.827Z,100865.28
2022-11-29T05:26:17.541Z,100872.19
2022-11-29T05:28:54.609Z,100877.41
2022-11-29T05:31:52.511Z,100881.09
2022-11-29T05:34:38.981Z,100882.81
2022-11-29T05:37:22.753Z,100859.97
2022-11-29T05:40:11.896Z,100889.63
2022-11-29T05:42:57.317Z,100889.78
2022-11-29T05:45:30.651Z,100896.78
2022-11-29T05:48:06.082Z,100896.66
2022-11-29T05:50:38.654Z,100901.97
2022-11-29T05:53:18.047Z,100907.41
2022-11-29T05:55:56.191Z,100910.81
2022-11-29T05:58:39.339Z,100922.97
2022-11-29T06:01:19.472Z,100915.94
2022-11-29T06:03:58.398Z,100918.69
2022-11-29T06:06:39.205Z,100926.69
2022-11-29T06:09:16.162Z,100923.16
2022-11-29T06:11:47.888Z,100921.41
2022-11-29T06:14:33.920Z,100923.16
2022-11-29T06:17:19.564Z,100921.41
2022-11-29T06:20:04.197Z,100924.03
2022-11-29T06:22:52.831Z,100928.34
2022-11-29T06:25:37.260Z,100927.56
2022-11-29T06:28:23.718Z,100931.94
2022-11-29T06:31:02.094Z,100931.88
2022-11-29T06:33:39.713Z,100935.31
2022-11-29T06:36:16.896Z,100936.38
2022-11-29T06:38:45.877Z,100943.13
2022-11-29T06:41:19.021Z,100936.88
2022-11-29T06:43:47.972Z,100944.75
2022-11-29T06:46:27.871Z,100938.56
2022-11-29T06:49:03.458Z,100941.16
2022-11-29T06:51:43.959Z,100950.84
2022-11-29T06:54:25.973Z,100946.44
2022-11-29T06:57:01.599Z,100856.97
2022-11-29T06:59:42.897Z,100947.44
2022-11-29T07:02:29.057Z,100955.22
2022-11-29T07:05:09.324Z,100960.53
2022-11-29T07:07:39.701Z,100957.91
2022-11-29T07:10:13.530Z,100964.94
2022-11-29T07:12:43.348Z,100965.78
2022-11-29T07:15:15.468Z,100969.31
2022-11-29T07:17:56.275Z,100970.09
2022-11-29T07:20:33.876Z,100968.41
2022-11-29T07:23:12.201Z,100978.00
2022-11-29T07:25:50.957Z,100978.88
2022-11-29T07:28:30.860Z,100989.38
2022-11-29T07:31:08.492Z,100983.25
2022-11-29T07:33:45.067Z,100984.09
2022-11-29T07:36:19.508Z,100988.53
2022-11-29T07:38:59.587Z,100994.63
2022-11-29T07:41:34.384Z,100993.69
2022-11-29T07:44:11.382Z,101001.53
2022-11-29T07:46:39.412Z,101001.50
2022-11-29T07:49:10.502Z,100999.69
2022-11-29T07:51:38.780Z,100999.72
2022-11-29T07:54:08.364Z,101009.31
2022-11-29T07:56:36.275Z,101006.56
2022-11-29T07:59:04.273Z,101013.50
2022-11-29T08:01:32.519Z,101001.94
2022-11-29T08:04:00.553Z,101018.41
2022-11-29T08:06:28.517Z,101007.94
2022-11-29T08:08:58.413Z,101032.47
2022-11-29T08:11:28.224Z,101021.88
2022-11-29T08:13:57.453Z,101027.03
2022-11-29T08:16:25.602Z,101030.47
2022-11-29T08:18:53.611Z,101029.72
2022-11-29T08:21:21.963Z,101025.31
2022-11-29T08:23:51.079Z,101021.88
2022-11-29T08:26:20.667Z,101035.88
2022-11-29T08:28:53.187Z,101037.75
2022-11-29T08:31:22.101Z,101028.03
2022-11-29T08:33:50.079Z,101025.53
2022-11-29T08:36:20.292Z,101032.53
2022-11-29T08:38:49.023Z,101031.56
2022-11-29T08:41:18.344Z,101041.19
2022-11-29T08:43:46.531Z,101030.72
2022-11-29T08:46:18.783Z,101038.53
2022-11-29T08:48:47.348Z,101036.84
2022-11-29T08:51:16.089Z,101049.72
2022-11-29T08:53:43.410Z,101047.91
2022-11-29T08:56:49.405Z,101046.28
2022-11-29T08:58:59.885Z,101051.31
2022-11-29T09:01:30.117Z,101055.47
2022-11-29T09:04:02.876Z,101054.69
2022-11-29T09:06:32.723Z,101062.03
2022-11-29T09:09:02.098Z,101058.09
2022-11-29T09:11:31.269Z,101059.59
2022-11-29T09:14:00.749Z,101061.47
2022-11-29T09:16:33.412Z,101061.38
2022-11-29T09:19:01.511Z,101071.97
2022-11-29T09:21:32.185Z,101068.41
2022-11-29T09:24:01.714Z,101075.59
2022-11-29T09:26:31.949Z,101076.09
2022-11-29T09:29:01.263Z,101083.16
2022-11-29T09:31:32.217Z,101073.53
2022-11-29T09:34:00.364Z,101075.38
2022-11-29T09:36:30.690Z,101076.25
2022-11-29T09:38:58.977Z,101084.09
2022-11-29T09:41:48.175Z,101080.75
2022-11-29T09:44:25.075Z,101079.72
2022-11-29T09:47:02.861Z,101085.94
2022-11-29T09:49:46.007Z,101086.06
2022-11-29T09:52:23.197Z,101086.94
2022-11-29T09:55:01.258Z,101098.97
2022-11-29T09:57:30.746Z,101098.13
2022-11-29T10:00:03.364Z,101103.34
2022-11-29T10:02:45.283Z,101105.50
2022-11-29T10:05:20.394Z,101102.06
2022-11-29T10:07:52.395Z,101097.66
2022-11-29T10:10:27.631Z,101098.53
2022-11-29T10:13:01.510Z,101097.59
2022-11-29T10:15:32.567Z,101104.63
2022-11-29T10:18:06.046Z,101096.72
2022-11-29T10:20:42.484Z,101109.94
2022-11-29T10:23:21.221Z,101092.94
2022-11-29T10:25:51.149Z,101096.31
2022-11-29T10:28:21.832Z,101096.28
2022-11-29T10:30:52.824Z,101103.16
2022-11-29T10:33:26.431Z,101105.53
2022-11-29T10:35:57.146Z,101103.97
2022-11-29T10:38:32.513Z,101108.16
2022-11-29T10:41:10.056Z,101108.13
2022-11-29T10:43:38.802Z,101111.16
2022-11-29T10:46:12.868Z,101105.03
2022-11-29T10:48:42.576Z,101109.31
2022-11-29T10:51:18.040Z,101095.00
2022-11-29T10:53:46.558Z,101106.94
2022-11-29T10:56:22.326Z,101103.06
2022-11-29T10:58:56.849Z,101093.78
2022-11-29T11:01:26.329Z,101102.56
2022-11-29T11:03:58.285Z,101099.09
2022-11-29T11:06:29.417Z,101100.34
2022-11-29T11:09:12.258Z,101103.78
2022-11-29T11:11:40.743Z,101101.50
2022-11-29T11:14:22.229Z,101100.88
2022-11-29T11:16:50.869Z,101087.63
2022-11-29T11:19:28.943Z,101101.16
2022-11-29T11:21:58.651Z,101107.09
2022-11-29T11:24:29.633Z,101099.88
2022-11-29T11:26:58.797Z,101090.28
2022-11-29T11:29:31.029Z,101107.19
2022-11-29T11:32:00.923Z,101106.50
2022-11-29T11:34:34.327Z,101091.44
2022-11-29T11:37:20.544Z,101102.03
2022-11-29T11:39:50.985Z,101110.91
2022-11-29T11:42:37.861Z,101114.63
2022-11-29T11:45:24.130Z,101110.25
2022-11-29T11:47:54.968Z,101114.53
2022-11-29T11:50:33.816Z,101112.06
2022-11-29T11:53:07.167Z,101103.03
2022-11-29T11:55:38.514Z,101113.97
2022-11-29T11:58:19.053Z,101101.59
2022-11-29T12:01:06.329Z,101107.06
2022-11-29T12:03:40.018Z,101119.34
2022-11-29T12:06:15.610Z,101120.63
2022-11-29T12:08:45.799Z,101115.44
2022-11-29T12:11:17.757Z,101116.69
2022-11-29T12:13:50.026Z,101125.88
2022-11-29T12:16:27.524Z,101130.34
2022-11-29T12:19:02.644Z,101127.13
2022-11-29T12:21:37.679Z,101141.16
2022-11-29T12:24:19.937Z,101141.34
2022-11-29T12:26:57.115Z,101130.91
2022-11-29T12:29:29.796Z,101141.75
2022-11-29T12:32:08.717Z,101138.97
2022-11-29T12:34:59.820Z,101147.72
2022-11-29T12:37:37.167Z,101146.78
2022-11-29T12:40:14.539Z,101155.84
2022-11-29T12:42:53.294Z,101151.72
2022-11-29T12:45:35.436Z,101151.44
2022-11-29T12:48:14.674Z,101152.88
2022-11-29T12:50:55.634Z,101142.25
2022-11-29T12:53:42.092Z,101155.63
2022-11-29T12:56:16.391Z,101152.94
2022-11-29T12:59:01.024Z,101158.25
2022-11-29T13:01:37.795Z,101153.69
2022-11-29T13:04:23.256Z,101161.19
2022-11-29T13:06:58.865Z,101154.63
2022-11-29T13:09:57.069Z,101129.38
2022-11-29T13:12:33.945Z,101165.88
2022-11-29T13:15:06.381Z,101158.00
2022-11-29T13:17:42.310Z,101159.03
2022-11-29T13:20:25.048Z,101154.84
2022-11-29T13:22:58.446Z,101164.47
2022-11-29T13:25:31.292Z,101160.88
2022-11-29T13:28:04.659Z,101170.69
2022-11-29T13:30:35.513Z,101160.78
2022-11-29T13:33:09.390Z,101175.25
2022-11-29T13:35:43.160Z,101168.25
2022-11-29T13:38:19.534Z,101177.97
2022-11-29T13:40:58.556Z,101174.47
2022-11-29T13:43:33.967Z,101177.13
2022-11-29T13:46:12.789Z,101178.16
2022-11-29T13:48:48.994Z,101187.03
2022-11-29T13:51:32.657Z,101189.78
2022-11-29T13:54:03.392Z,101182.84
2022-11-29T13:56:42.809Z,101189.78
2022-11-29T13:59:18.579Z,101159.19
2022-11-29T14:01:50.306Z,101196.59
2022-11-29T14:04:29.973Z,101193.97
2022-11-29T14:07:11.384Z,101189.22
2022-11-29T14:09:48.431Z,101201.97
2022-11-29T14:12:35.774Z,101203.84
2022-11-29T14:15:16.165Z,101203.00
2022-11-29T14:17:50.709Z,101205.50
2022-11-29T14:20:59.180Z,101206.38
2022-11-29T14:23:39.059Z,101187.38
2022-11-29T14:26:28.745Z,101203.88
2022-11-29T14:28:59.715Z,101208.28
2022-11-29T14:31:51.483Z,101212.81
2022-11-29T14:34:38.070Z,101213.84
2022-11-29T14:37:18.459Z,101212.25
2022-11-29T14:39:48.448Z,101214.78
2022-11-29T14:42:19.014Z,101221.16
2022-11-29T14:44:52.155Z,101216.69
2022-11-29T14:47:25.071Z,101213.22
2022-11-29T14:49:55.944Z,101219.47
2022-11-29T14:52:29.364Z,101222.03
2022-11-29T14:55:04.265Z,101220.31
2022-11-29T14:57:54.952Z,101222.31
2022-11-29T15:00:27.395Z,101199.63
2022-11-29T15:02:59.981Z,101218.78
2022-11-29T15:05:33.889Z,101220.69
2022-11-29T15:08:10.430Z,101226.84
2022-11-29T15:10:42.273Z,101221.53
2022-11-29T15:13:14.500Z,101232.91
2022-11-29T15:16:07.437Z,101232.97
2022-11-29T15:19:09.002Z,101228.56
2022-11-29T15:21:46.363Z,101234.56
2022-11-29T15:24:16.930Z,101239.16
2022-11-29T15:26:56.581Z,101233.81
2022-11-29T15:29:24.815Z,101220.69
2022-11-29T15:31:57.817Z,101233.13
2022-11-29T15:34:32.430Z,101234.81
2022-11-29T15:37:01.084Z,101248.69
2022-11-29T15:39:31.371Z,101245.13
2022-11-29T15:42:03.770Z,101253.06
2022-11-29T15:44:33.667Z,101256.69
2022-11-29T15:47:27.641Z,101251.59
2022-11-29T15:49:55.829Z,101253.41
2022-11-29T15:52:29.299Z,101258.75
2022-11-29T15:55:01.850Z,101243.03
2022-11-29T15:57:36.206Z,101258.00
2022-11-29T16:00:08.277Z,101252.72
2022-11-29T16:02:41.393Z,101255.44
2022-11-29T16:05:17.207Z,101260.69
2022-11-29T16:07:47.209Z,101255.34
2022-11-29T16:10:18.431Z,101240.56
2022-11-29T16:12:58.763Z,101256.34
2022-11-29T16:15:30.264Z,101259.88
2022-11-29T16:18:05.384Z,101259.88
2022-11-29T16:20:33.545Z,101259.88
2022-11-29T16:23:15.319Z,101268.63
2022-11-29T16:25:59.774Z,101273.13
2022-11-29T16:28:32.646Z,101255.75
2022-11-29T16:31:00.747Z,101267.97
2022-11-29T16:33:30.133Z,101280.19
2022-11-29T16:36:06.886Z,101281.94
2022-11-29T16:38:34.963Z,101282.75
2022-11-29T16:41:08.304Z,101287.13
2022-11-29T16:43:55.351Z,101288.00
2022-11-29T16:46:38.447Z,101293.50
2022-11-29T16:49:34.540Z,101292.69
2022-11-29T16:52:03.631Z,101296.13
2022-11-29T16:54:34.150Z,101296.22
2022-11-29T16:57:05.942Z,101299.81
2022-11-29T16:59:35.238Z,101290.06
2022-11-29T17:02:04.673Z,101284.88
2022-11-29T17:04:34.033Z,101291.88
2022-11-29T17:07:02.190Z,101306.78
2022-11-29T17:09:33.061Z,101304.22
2022-11-29T17:12:01.925Z,101311.25
2022-11-29T17:14:31.141Z,101299.00
2022-11-29T17:17:02.559Z,101291.09
2022-11-29T17:19:31.321Z,101304.13
2022-11-29T17:22:00.720Z,101307.56
2022-11-29T17:24:28.708Z,101311.19
2022-11-29T17:26:56.789Z,101322.63
2022-11-29T17:29:24.776Z,101327.91
2022-11-29T17:31:53.442Z,101318.25
2022-11-29T17:34:21.575Z,101322.63
2022-11-29T17:36:49.582Z,101327.00
2022-11-29T17:39:20.178Z,101327.00
2022-11-29T17:41:48.519Z,101327.91
2022-11-29T17:44:16.544Z,101332.38
2022-11-29T17:46:44.566Z,101335.91
2022-11-29T17:49:12.523Z,101332.38
2022-11-29T17:51:56.446Z,101334.19
2022-11-29T17:54:25.810Z,101343.06
2022-11-29T17:56:53.811Z,101339.66
2022-11-29T17:59:21.789Z,101342.25
2022-11-29T18:01:49.875Z,101343.16
2022-11-29T18:04:18.051Z,101344.97
2022-11-29T18:06:49.677Z,101342.25
2022-11-29T18:09:19.625Z,101347.53
2022-11-29T18:11:50.630Z,101342.44
2022-11-29T18:14:20.956Z,101346.81
2022-11-29T18:16:49.285Z,101350.41
2022-11-29T18:19:19.936Z,101348.56
2022-11-29T18:21:49.614Z,101352.91
2022-11-29T18:24:17.942Z,101355.59
2022-11-29T18:26:46.370Z,101348.66
2022-11-29T18:29:15.807Z,101346.13
2022-11-29T18:31:45.958Z,101355.72
2022-11-29T18:34:15.637Z,101343.44
2022-11-29T18:36:45.626Z,101354.88
2022-11-29T18:39:15.244Z,101353.19
2022-11-29T18:41:45.021Z,101352.31
2022-11-29T18:44:16.016Z,101355.91
2022-11-29T18:46:45.807Z,101358.53
2022-11-29T18:49:15.416Z,101308.69
2022-11-29T18:51:45.644Z,101348.81
2022-11-29T18:54:14.587Z,101353.25
2022-11-29T18:56:43.820Z,101348.78
2022-11-29T18:59:14.766Z,101356.72
2022-11-29T19:01:45.357Z,101361.97
2022-11-29T19:04:15.144Z,101362.06
2022-11-29T19:06:44.110Z,101361.16
2022-11-29T19:09:14.413Z,101361.16
2022-11-29T19:11:42.721Z,101363.75
2022-11-29T19:14:12.955Z,101347.13
2022-11-29T19:16:42.656Z,101357.66
2022-11-29T19:19:12.619Z,101367.28
2022-11-29T19:21:40.925Z,101369.06
2022-11-29T19:24:14.848Z,101367.38
2022-11-29T19:26:45.374Z,101373.47
2022-11-29T19:29:13.750Z,101362.09
2022-11-29T19:31:42.400Z,101372.59
2022-11-29T19:34:12.219Z,101361.09
2022-11-29T19:36:43.118Z,101370.84
2022-11-29T19:39:13.665Z,101367.25
2022-11-29T19:41:43.984Z,101366.44
2022-11-29T19:44:12.833Z,101363.75
2022-11-29T19:46:42.632Z,101322.78
2022-11-29T19:49:12.246Z,101362.84
2022-11-29T19:51:40.355Z,101372.59
2022-11-29T19:54:10.039Z,101362.84
2022-11-29T19:56:38.913Z,101369.09
2022-11-29T19:59:07.852Z,101382.22
2022-11-29T20:01:43.639Z,101381.41
2022-11-29T20:04:16.664Z,101377.81
2022-11-29T20:06:46.583Z,101385.72
2022-11-29T20:09:15.177Z,101386.69
2022-11-29T20:11:43.866Z,101338.63
2022-11-29T20:14:14.501Z,101379.63
2022-11-29T20:16:43.541Z,101383.97
2022-11-29T20:19:14.997Z,101380.56
2022-11-29T20:21:44.797Z,101391.13
2022-11-29T20:24:14.243Z,101366.63
2022-11-29T20:26:45.014Z,101387.59
2022-11-29T20:29:14.258Z,101387.63
2022-11-29T20:31:49.601Z,101384.97
2022-11-29T20:34:20.832Z,101395.47
2022-11-29T20:37:13.055Z,101391.19
2022-11-29T20:39:47.099Z,101392.91
2022-11-29T20:42:37.483Z,101394.66
2022-11-29T20:45:10.466Z,101388.47
2022-11-29T20:47:45.811Z,101404.31
2022-11-29T20:50:23.222Z,101397.28
2022-11-29T20:53:02.932Z,101398.16
2022-11-29T20:55:31.159Z,101398.97
2022-11-29T20:57:59.161Z,101395.53
2022-11-29T21:00:27.520Z,101403.44
2022-11-29T21:02:55.573Z,101362.28
2022-11-29T21:05:24.867Z,101400.78
2022-11-29T21:07:52.869Z,101399.09
2022-11-29T21:10:21.922Z,101400.91
2022-11-29T21:12:50.407Z,101397.47
2022-11-29T21:15:19.605Z,101401.84
2022-11-29T21:17:48.245Z,101399.16
2022-11-29T21:20:20.281Z,101397.34
2022-11-29T21:22:55.515Z,101402.66
2022-11-29T21:25:35.931Z,101405.28
2022-11-29T21:28:09.452Z,101402.63
2022-11-29T21:30:38.341Z,101405.31
2022-11-29T21:33:06.967Z,101398.22
2022-11-29T21:35:36.485Z,101408.81
2022-11-29T21:38:05.868Z,101401.84
2022-11-29T21:40:34.037Z,101393.88
2022-11-29T21:43:02.029Z,101403.53
2022-11-29T21:45:29.946Z,101412.28
2022-11-29T21:48:00.815Z,101407.00
2022-11-29T21:50:28.913Z,101398.22
2022-11-29T21:52:57.579Z,101371.16
2022-11-29T21:55:31.830Z,101417.50
2022-11-29T21:58:00.380Z,101409.66
2022-11-29T22:00:30.953Z,101377.34
2022-11-29T22:03:02.482Z,101422.81
2022-11-29T22:05:31.964Z,101418.44
2022-11-29T22:08:00.198Z,101421.13
2022-11-29T22:10:30.075Z,101418.47
2022-11-29T22:12:59.293Z,101422.00
2022-11-29T22:15:29.486Z,101423.75
2022-11-29T22:17:57.542Z,101421.13
2022-11-29T22:20:25.557Z,101421.19
2022-11-29T22:22:58.406Z,101425.56
2022-11-29T22:25:26.800Z,101427.31
2022-11-29T22:27:56.112Z,101433.47
2022-11-29T22:30:24.039Z,101430.91
2022-11-29T22:32:52.025Z,101429.97
2022-11-29T22:35:20.011Z,101430.94
2022-11-29T22:37:48.005Z,101426.50
2022-11-29T22:40:16.959Z,101426.50
2022-11-29T22:42:44.892Z,101427.34
2022-11-29T22:45:14.265Z,101428.25
2022-11-29T22:47:42.248Z,101431.78
2022-11-29T22:50:11.585Z,101433.50
2022-11-29T22:52:39.511Z,101435.28
2022-11-29T22:55:08.062Z,101437.00
2022-11-29T22:57:36.402Z,101430.84
2022-11-29T23:00:05.353Z,101439.63
2022-11-29T23:02:34.777Z,101434.41
2022-11-29T23:05:02.962Z,101431.00
2022-11-29T23:07:31.107Z,101435.34
2022-11-29T23:09:59.110Z,101442.38
2022-11-29T23:12:27.083Z,101439.69
2022-11-29T23:14:56.839Z,101437.09
2022-11-29T23:17:25.230Z,101437.97
2022-11-29T23:19:54.672Z,101444.13
2022-11-29T23:22:22.649Z,101445.00
2022-11-29T23:24:50.593Z,101442.38
2022-11-29T23:27:18.544Z,101451.19
2022-11-29T23:29:46.449Z,101448.53
2022-11-29T23:32:14.512Z,101448.50
2022-11-29T23:34:42.379Z,101442.38
2022-11-29T23:37:11.628Z,101454.66
2022-11-29T23:39:39.550Z,101439.72
2022-11-29T23:42:07.504Z,101446.81
2022-11-29T23:44:35.375Z,101438.84
2022-11-29T23:47:03.329Z,101440.66
2022-11-29T23:49:31.213Z,101431.78
2022-11-29T23:51:59.142Z,101430.91
2022-11-29T23:54:28.560Z,101428.25
2022-11-29T23:56:56.495Z,101427.38
2022-11-29T23:59:24.385Z,101431.78
